sensor_id;sensor_type;location;lat;lon;timestamp;temperature;humidity
39951;DHT22;25629;51.444;-2.606;2023-07-13T00:00:27;15.80;99.90
39951;DHT22;25629;51.444;-2.606;2023-07-13T00:02:53;15.80;99.90
39951;DHT22;25629;51.444;-2.606;2023-07-13T00:05:22;15.80;99.90
39951;DHT22;25629;51.444;-2.606;2023-07-13T00:07:48;15.80;99.90
39951;DHT22;25629;51.444;-2.606;2023-07-13T00:10:14;15.70;99.90
39951;DHT22;25629;51.444;-2.606;2023-07-13T00:12:40;15.70;99.90
39951;DHT22;25629;51.444;-2.606;2023-07-13T00:15:07;15.70;99.90
39951;DHT22;25629;51.444;-2.606;2023-07-13T00:17:33;15.70;99.90
39951;DHT22;25629;51.444;-2.606;2023-07-13T00:19:58;15.70;99.90
39951;DHT22;25629;51.444;-2.606;2023-07-13T00:22:24;15.70;99.90
39951;DHT22;25629;51.444;-2.606;2023-07-13T00:24:51;15.80;99.90
39951;DHT22;25629;51.444;-2.606;2023-07-13T00:27:17;15.70;99.90
39951;DHT22;25629;51.444;-2.606;2023-07-13T00:29:43;15.80;99.90
39951;DHT22;25629;51.444;-2.606;2023-07-13T00:32:10;15.70;99.90
39951;DHT22;25629;51.444;-2.606;2023-07-13T00:34:37;15.60;99.90
39951;DHT22;25629;51.444;-2.606;2023-07-13T00:37:02;15.60;99.90
39951;DHT22;25629;51.444;-2.606;2023-07-13T00:39:28;15.60;99.90
39951;DHT22;25629;51.444;-2.606;2023-07-13T00:41:53;15.50;99.90
39951;DHT22;25629;51.444;-2.606;2023-07-13T00:44:20;15.40;99.90
39951;DHT22;25629;51.444;-2.606;2023-07-13T00:46:46;15.40;99.90
39951;DHT22;25629;51.444;-2.606;2023-07-13T00:49:14;15.40;99.90
39951;DHT22;25629;51.444;-2.606;2023-07-13T00:51:49;15.40;99.90
39951;DHT22;25629;51.444;-2.606;2023-07-13T00:54:20;15.40;99.90
39951;DHT22;25629;51.444;-2.606;2023-07-13T00:56:47;15.40;99.90
39951;DHT22;25629;51.444;-2.606;2023-07-13T00:59:14;15.50;99.90
39951;DHT22;25629;51.444;-2.606;2023-07-13T01:01:40;15.50;99.90
39951;DHT22;25629;51.444;-2.606;2023-07-13T01:04:06;15.50;99.90
39951;DHT22;25629;51.444;-2.606;2023-07-13T01:06:36;15.60;99.90
39951;DHT22;25629;51.444;-2.606;2023-07-13T01:09:02;15.60;99.90
39951;DHT22;25629;51.444;-2.606;2023-07-13T01:11:28;15.60;99.90
39951;DHT22;25629;51.444;-2.606;2023-07-13T01:13:53;15.60;99.90
39951;DHT22;25629;51.444;-2.606;2023-07-13T01:16:22;15.50;99.90
39951;DHT22;25629;51.444;-2.606;2023-07-13T01:18:49;15.50;99.90
39951;DHT22;25629;51.444;-2.606;2023-07-13T01:21:15;15.40;99.90
39951;DHT22;25629;51.444;-2.606;2023-07-13T01:23:41;15.50;99.90
39951;DHT22;25629;51.444;-2.606;2023-07-13T01:26:07;15.40;99.90
39951;DHT22;25629;51.444;-2.606;2023-07-13T01:28:33;15.50;99.90
39951;DHT22;25629;51.444;-2.606;2023-07-13T01:31:02;15.60;99.90
39951;DHT22;25629;51.444;-2.606;2023-07-13T01:33:27;15.60;99.90
39951;DHT22;25629;51.444;-2.606;2023-07-13T01:35:53;15.50;99.90
39951;DHT22;25629;51.444;-2.606;2023-07-13T01:38:20;15.50;99.90
39951;DHT22;25629;51.444;-2.606;2023-07-13T01:40:46;15.50;99.90
39951;DHT22;25629;51.444;-2.606;2023-07-13T01:43:11;15.50;99.90
39951;DHT22;25629;51.444;-2.606;2023-07-13T01:45:37;15.50;99.90
39951;DHT22;25629;51.444;-2.606;2023-07-13T01:48:02;15.50;99.90
39951;DHT22;25629;51.444;-2.606;2023-07-13T01:50:28;15.60;99.90
39951;DHT22;25629;51.444;-2.606;2023-07-13T01:52:54;15.60;99.90
39951;DHT22;25629;51.444;-2.606;2023-07-13T01:55:20;15.60;99.90
39951;DHT22;25629;51.444;-2.606;2023-07-13T01:57:45;15.60;99.90
39951;DHT22;25629;51.444;-2.606;2023-07-13T02:00:12;15.60;99.90
39951;DHT22;25629;51.444;-2.606;2023-07-13T02:02:38;15.60;99.90
39951;DHT22;25629;51.444;-2.606;2023-07-13T02:05:04;15.60;99.90
39951;DHT22;25629;51.444;-2.606;2023-07-13T02:07:30;15.60;99.90
39951;DHT22;25629;51.444;-2.606;2023-07-13T02:09:56;15.50;99.90
39951;DHT22;25629;51.444;-2.606;2023-07-13T02:12:21;15.50;99.90
39951;DHT22;25629;51.444;-2.606;2023-07-13T02:14:47;15.50;99.90
39951;DHT22;25629;51.444;-2.606;2023-07-13T02:17:12;15.40;99.90
39951;DHT22;25629;51.444;-2.606;2023-07-13T02:19:38;15.40;99.90
39951;DHT22;25629;51.444;-2.606;2023-07-13T02:22:03;15.40;99.90
39951;DHT22;25629;51.444;-2.606;2023-07-13T02:24:29;15.40;99.90
39951;DHT22;25629;51.444;-2.606;2023-07-13T02:26:55;15.40;99.90
39951;DHT22;25629;51.444;-2.606;2023-07-13T02:29:20;15.40;99.90
39951;DHT22;25629;51.444;-2.606;2023-07-13T02:31:46;15.30;99.90
39951;DHT22;25629;51.444;-2.606;2023-07-13T02:34:11;15.30;99.90
39951;DHT22;25629;51.444;-2.606;2023-07-13T02:36:37;15.30;99.90
39951;DHT22;25629;51.444;-2.606;2023-07-13T02:39:03;15.30;99.90
39951;DHT22;25629;51.444;-2.606;2023-07-13T02:41:29;15.30;99.90
39951;DHT22;25629;51.444;-2.606;2023-07-13T02:43:54;15.30;99.90
39951;DHT22;25629;51.444;-2.606;2023-07-13T02:46:28;15.40;99.90
39951;DHT22;25629;51.444;-2.606;2023-07-13T02:48:54;15.40;99.90
39951;DHT22;25629;51.444;-2.606;2023-07-13T02:51:19;15.30;99.90
39951;DHT22;25629;51.444;-2.606;2023-07-13T02:53:45;15.40;99.90
39951;DHT22;25629;51.444;-2.606;2023-07-13T02:56:10;15.30;99.90
39951;DHT22;25629;51.444;-2.606;2023-07-13T02:58:36;15.30;99.90
39951;DHT22;25629;51.444;-2.606;2023-07-13T03:01:07;15.30;99.90
39951;DHT22;25629;51.444;-2.606;2023-07-13T03:03:33;15.30;99.90
39951;DHT22;25629;51.444;-2.606;2023-07-13T03:05:59;15.30;99.90
39951;DHT22;25629;51.444;-2.606;2023-07-13T03:08:25;15.30;99.90
39951;DHT22;25629;51.444;-2.606;2023-07-13T03:11:01;15.20;99.90
39951;DHT22;25629;51.444;-2.606;2023-07-13T03:13:27;15.20;99.90
39951;DHT22;25629;51.444;-2.606;2023-07-13T03:15:52;15.10;99.90
39951;DHT22;25629;51.444;-2.606;2023-07-13T03:18:18;15.10;99.90
39951;DHT22;25629;51.444;-2.606;2023-07-13T03:20:44;15.10;99.90
39951;DHT22;25629;51.444;-2.606;2023-07-13T03:23:09;15.10;99.90
39951;DHT22;25629;51.444;-2.606;2023-07-13T03:25:35;15.10;99.90
39951;DHT22;25629;51.444;-2.606;2023-07-13T03:28:00;15.10;99.90
39951;DHT22;25629;51.444;-2.606;2023-07-13T03:30:26;15.10;99.90
39951;DHT22;25629;51.444;-2.606;2023-07-13T03:32:51;15.10;99.90
39951;DHT22;25629;51.444;-2.606;2023-07-13T03:35:17;15.10;99.90
39951;DHT22;25629;51.444;-2.606;2023-07-13T03:37:42;15.10;99.90
39951;DHT22;25629;51.444;-2.606;2023-07-13T03:40:08;15.10;99.90
39951;DHT22;25629;51.444;-2.606;2023-07-13T03:42:35;15.10;99.90
39951;DHT22;25629;51.444;-2.606;2023-07-13T03:45:01;15.10;99.90
39951;DHT22;25629;51.444;-2.606;2023-07-13T03:47:26;15.10;99.90
39951;DHT22;25629;51.444;-2.606;2023-07-13T03:49:52;15.10;99.90
39951;DHT22;25629;51.444;-2.606;2023-07-13T03:52:18;15.10;99.90
39951;DHT22;25629;51.444;-2.606;2023-07-13T03:54:44;15.10;99.90
39951;DHT22;25629;51.444;-2.606;2023-07-13T03:57:09;15.00;99.90
39951;DHT22;25629;51.444;-2.606;2023-07-13T03:59:35;15.10;99.90
39951;DHT22;25629;51.444;-2.606;2023-07-13T04:02:01;15.10;99.90
39951;DHT22;25629;51.444;-2.606;2023-07-13T04:04:27;15.10;99.90
39951;DHT22;25629;51.444;-2.606;2023-07-13T04:06:52;15.10;99.90
39951;DHT22;25629;51.444;-2.606;2023-07-13T04:09:18;15.10;99.90
39951;DHT22;25629;51.444;-2.606;2023-07-13T04:11:44;15.10;99.90
39951;DHT22;25629;51.444;-2.606;2023-07-13T04:14:09;15.10;99.90
39951;DHT22;25629;51.444;-2.606;2023-07-13T04:16:35;15.20;99.90
39951;DHT22;25629;51.444;-2.606;2023-07-13T04:19:00;15.20;99.90
39951;DHT22;25629;51.444;-2.606;2023-07-13T04:21:27;15.20;99.90
39951;DHT22;25629;51.444;-2.606;2023-07-13T04:23:53;15.30;99.90
39951;DHT22;25629;51.444;-2.606;2023-07-13T04:26:19;15.30;99.90
39951;DHT22;25629;51.444;-2.606;2023-07-13T04:28:46;15.30;99.90
39951;DHT22;25629;51.444;-2.606;2023-07-13T04:31:12;15.30;99.90
39951;DHT22;25629;51.444;-2.606;2023-07-13T04:33:38;15.30;99.90
39951;DHT22;25629;51.444;-2.606;2023-07-13T04:36:03;15.40;99.90
39951;DHT22;25629;51.444;-2.606;2023-07-13T04:38:30;15.40;99.90
39951;DHT22;25629;51.444;-2.606;2023-07-13T04:40:56;15.40;99.90
39951;DHT22;25629;51.444;-2.606;2023-07-13T04:43:22;15.40;99.90
39951;DHT22;25629;51.444;-2.606;2023-07-13T04:45:48;15.50;99.90
39951;DHT22;25629;51.444;-2.606;2023-07-13T04:48:13;15.50;99.90
39951;DHT22;25629;51.444;-2.606;2023-07-13T04:50:39;15.60;99.90
39951;DHT22;25629;51.444;-2.606;2023-07-13T04:53:04;15.60;99.90
39951;DHT22;25629;51.444;-2.606;2023-07-13T04:55:30;15.60;99.90
39951;DHT22;25629;51.444;-2.606;2023-07-13T04:57:56;15.60;99.90
39951;DHT22;25629;51.444;-2.606;2023-07-13T05:00:22;15.60;99.90
39951;DHT22;25629;51.444;-2.606;2023-07-13T05:02:47;15.70;99.90
39951;DHT22;25629;51.444;-2.606;2023-07-13T05:05:13;15.70;99.90
39951;DHT22;25629;51.444;-2.606;2023-07-13T05:07:38;15.80;99.90
39951;DHT22;25629;51.444;-2.606;2023-07-13T05:10:04;15.80;99.90
39951;DHT22;25629;51.444;-2.606;2023-07-13T05:12:30;15.80;99.90
39951;DHT22;25629;51.444;-2.606;2023-07-13T05:14:56;15.90;99.90
39951;DHT22;25629;51.444;-2.606;2023-07-13T05:17:21;15.90;99.90
39951;DHT22;25629;51.444;-2.606;2023-07-13T05:19:47;15.90;99.90
39951;DHT22;25629;51.444;-2.606;2023-07-13T05:22:13;16.00;99.90
39951;DHT22;25629;51.444;-2.606;2023-07-13T05:24:38;15.90;99.90
39951;DHT22;25629;51.444;-2.606;2023-07-13T05:27:04;16.00;99.90
39951;DHT22;25629;51.444;-2.606;2023-07-13T05:29:29;16.10;99.90
39951;DHT22;25629;51.444;-2.606;2023-07-13T05:31:55;16.10;99.90
39951;DHT22;25629;51.444;-2.606;2023-07-13T05:34:20;16.00;99.90
39951;DHT22;25629;51.444;-2.606;2023-07-13T05:36:46;16.00;99.90
39951;DHT22;25629;51.444;-2.606;2023-07-13T05:39:12;16.00;99.90
39951;DHT22;25629;51.444;-2.606;2023-07-13T05:41:37;16.10;99.90
39951;DHT22;25629;51.444;-2.606;2023-07-13T05:44:03;16.10;99.90
39951;DHT22;25629;51.444;-2.606;2023-07-13T05:46:28;16.20;99.90
39951;DHT22;25629;51.444;-2.606;2023-07-13T05:48:54;16.20;99.90
39951;DHT22;25629;51.444;-2.606;2023-07-13T05:51:19;16.30;99.90
39951;DHT22;25629;51.444;-2.606;2023-07-13T05:53:45;16.30;99.90
39951;DHT22;25629;51.444;-2.606;2023-07-13T05:56:10;16.30;99.90
39951;DHT22;25629;51.444;-2.606;2023-07-13T05:58:36;16.30;99.90
39951;DHT22;25629;51.444;-2.606;2023-07-13T06:01:08;16.30;99.90
39951;DHT22;25629;51.444;-2.606;2023-07-13T06:03:35;16.30;99.90
39951;DHT22;25629;51.444;-2.606;2023-07-13T06:06:00;16.30;99.90
39951;DHT22;25629;51.444;-2.606;2023-07-13T06:08:26;16.40;99.90
39951;DHT22;25629;51.444;-2.606;2023-07-13T06:10:52;16.50;99.90
39951;DHT22;25629;51.444;-2.606;2023-07-13T06:13:18;16.60;99.90
39951;DHT22;25629;51.444;-2.606;2023-07-13T06:15:48;16.60;99.90
39951;DHT22;25629;51.444;-2.606;2023-07-13T06:18:13;16.70;99.90
39951;DHT22;25629;51.444;-2.606;2023-07-13T06:20:39;16.70;99.90
39951;DHT22;25629;51.444;-2.606;2023-07-13T06:23:04;16.80;99.90
39951;DHT22;25629;51.444;-2.606;2023-07-13T06:25:30;16.80;99.90
39951;DHT22;25629;51.444;-2.606;2023-07-13T06:27:56;16.90;99.90
39951;DHT22;25629;51.444;-2.606;2023-07-13T06:30:22;16.90;99.90
39951;DHT22;25629;51.444;-2.606;2023-07-13T06:32:47;17.00;99.90
39951;DHT22;25629;51.444;-2.606;2023-07-13T06:35:13;17.20;99.90
39951;DHT22;25629;51.444;-2.606;2023-07-13T06:37:38;17.30;99.90
39951;DHT22;25629;51.444;-2.606;2023-07-13T06:40:04;17.40;99.90
39951;DHT22;25629;51.444;-2.606;2023-07-13T06:42:30;17.40;99.90
39951;DHT22;25629;51.444;-2.606;2023-07-13T06:44:55;17.40;99.90
39951;DHT22;25629;51.444;-2.606;2023-07-13T06:47:21;17.50;99.90
39951;DHT22;25629;51.444;-2.606;2023-07-13T06:49:46;17.50;99.90
39951;DHT22;25629;51.444;-2.606;2023-07-13T06:52:12;17.50;99.90
39951;DHT22;25629;51.444;-2.606;2023-07-13T06:54:37;17.30;99.90
39951;DHT22;25629;51.444;-2.606;2023-07-13T06:57:03;17.20;99.90
39951;DHT22;25629;51.444;-2.606;2023-07-13T06:59:29;17.00;99.90
39951;DHT22;25629;51.444;-2.606;2023-07-13T07:01:54;16.80;99.90
39951;DHT22;25629;51.444;-2.606;2023-07-13T07:04:20;16.80;99.90
39951;DHT22;25629;51.444;-2.606;2023-07-13T07:06:45;16.90;99.90
39951;DHT22;25629;51.444;-2.606;2023-07-13T07:09:11;16.90;99.90
39951;DHT22;25629;51.444;-2.606;2023-07-13T07:11:37;16.90;99.90
39951;DHT22;25629;51.444;-2.606;2023-07-13T07:14:02;17.00;99.90
39951;DHT22;25629;51.444;-2.606;2023-07-13T07:16:28;17.00;99.90
39951;DHT22;25629;51.444;-2.606;2023-07-13T07:18:53;16.90;99.90
39951;DHT22;25629;51.444;-2.606;2023-07-13T07:21:19;16.90;99.90
39951;DHT22;25629;51.444;-2.606;2023-07-13T07:23:45;16.80;99.90
39951;DHT22;25629;51.444;-2.606;2023-07-13T07:26:11;16.70;99.90
39951;DHT22;25629;51.444;-2.606;2023-07-13T07:28:37;16.60;99.90
39951;DHT22;25629;51.444;-2.606;2023-07-13T07:31:02;16.50;99.90
39951;DHT22;25629;51.444;-2.606;2023-07-13T07:33:28;16.40;99.90
39951;DHT22;25629;51.444;-2.606;2023-07-13T07:35:53;16.50;99.90
39951;DHT22;25629;51.444;-2.606;2023-07-13T07:38:19;16.70;99.90
39951;DHT22;25629;51.444;-2.606;2023-07-13T07:40:45;16.90;99.90
39951;DHT22;25629;51.444;-2.606;2023-07-13T07:43:11;17.00;99.90
39951;DHT22;25629;51.444;-2.606;2023-07-13T07:45:37;17.00;99.90
39951;DHT22;25629;51.444;-2.606;2023-07-13T07:48:03;17.00;99.90
39951;DHT22;25629;51.444;-2.606;2023-07-13T07:50:29;16.90;99.90
39951;DHT22;25629;51.444;-2.606;2023-07-13T07:52:55;16.90;99.90
39951;DHT22;25629;51.444;-2.606;2023-07-13T07:55:22;16.90;99.90
39951;DHT22;25629;51.444;-2.606;2023-07-13T07:57:47;17.00;99.90
39951;DHT22;25629;51.444;-2.606;2023-07-13T08:00:13;16.90;99.90
39951;DHT22;25629;51.444;-2.606;2023-07-13T08:02:39;16.90;99.90
39951;DHT22;25629;51.444;-2.606;2023-07-13T08:05:06;16.90;99.90
39951;DHT22;25629;51.444;-2.606;2023-07-13T08:07:32;16.90;99.90
39951;DHT22;25629;51.444;-2.606;2023-07-13T08:09:58;16.90;99.90
39951;DHT22;25629;51.444;-2.606;2023-07-13T08:12:23;16.90;99.90
39951;DHT22;25629;51.444;-2.606;2023-07-13T08:14:52;16.90;99.90
39951;DHT22;25629;51.444;-2.606;2023-07-13T08:17:23;16.90;99.90
39951;DHT22;25629;51.444;-2.606;2023-07-13T08:19:49;16.90;99.90
39951;DHT22;25629;51.444;-2.606;2023-07-13T08:22:15;16.90;99.90
39951;DHT22;25629;51.444;-2.606;2023-07-13T08:24:40;16.90;99.90
39951;DHT22;25629;51.444;-2.606;2023-07-13T08:27:08;17.00;99.90
39951;DHT22;25629;51.444;-2.606;2023-07-13T08:29:33;17.00;99.90
39951;DHT22;25629;51.444;-2.606;2023-07-13T08:31:59;17.00;99.90
39951;DHT22;25629;51.444;-2.606;2023-07-13T08:34:24;17.00;99.90
39951;DHT22;25629;51.444;-2.606;2023-07-13T08:36:50;17.10;99.90
39951;DHT22;25629;51.444;-2.606;2023-07-13T08:39:15;17.20;99.90
39951;DHT22;25629;51.444;-2.606;2023-07-13T08:41:41;17.30;99.90
39951;DHT22;25629;51.444;-2.606;2023-07-13T08:44:11;17.50;99.90
39951;DHT22;25629;51.444;-2.606;2023-07-13T08:46:40;17.70;99.90
39951;DHT22;25629;51.444;-2.606;2023-07-13T08:49:13;17.80;99.90
39951;DHT22;25629;51.444;-2.606;2023-07-13T08:51:50;17.90;99.90
39951;DHT22;25629;51.444;-2.606;2023-07-13T08:56:43;18.20;99.90
39951;DHT22;25629;51.444;-2.606;2023-07-13T08:59:14;18.20;99.90
39951;DHT22;25629;51.444;-2.606;2023-07-13T09:02:00;18.20;99.90
39951;DHT22;25629;51.444;-2.606;2023-07-13T09:12:26;18.30;99.90
39951;DHT22;25629;51.444;-2.606;2023-07-13T09:14:54;18.40;99.90
39951;DHT22;25629;51.444;-2.606;2023-07-13T09:17:29;18.20;99.90
39951;DHT22;25629;51.444;-2.606;2023-07-13T09:20:02;18.00;99.90
39951;DHT22;25629;51.444;-2.606;2023-07-13T09:22:30;17.90;99.90
39951;DHT22;25629;51.444;-2.606;2023-07-13T09:25:02;17.90;99.90
39951;DHT22;25629;51.444;-2.606;2023-07-13T09:27:39;17.90;99.90
39951;DHT22;25629;51.444;-2.606;2023-07-13T09:32:37;17.70;99.90
39951;DHT22;25629;51.444;-2.606;2023-07-13T09:35:07;17.60;99.90
39951;DHT22;25629;51.444;-2.606;2023-07-13T09:37:34;17.20;99.90
39951;DHT22;25629;51.444;-2.606;2023-07-13T09:40:00;17.00;99.90
39951;DHT22;25629;51.444;-2.606;2023-07-13T09:42:26;16.90;99.90
39951;DHT22;25629;51.444;-2.606;2023-07-13T09:44:53;17.00;99.90
39951;DHT22;25629;51.444;-2.606;2023-07-13T09:47:20;17.30;99.90
39951;DHT22;25629;51.444;-2.606;2023-07-13T09:49:53;17.60;99.90
39951;DHT22;25629;51.444;-2.606;2023-07-13T09:52:19;17.80;99.90
39951;DHT22;25629;51.444;-2.606;2023-07-13T09:54:46;17.70;99.90
39951;DHT22;25629;51.444;-2.606;2023-07-13T09:57:15;17.80;99.90
39951;DHT22;25629;51.444;-2.606;2023-07-13T09:59:46;18.10;99.90
39951;DHT22;25629;51.444;-2.606;2023-07-13T10:02:31;18.30;99.90
39951;DHT22;25629;51.444;-2.606;2023-07-13T10:07:24;18.80;99.90
39951;DHT22;25629;51.444;-2.606;2023-07-13T10:09:56;19.00;99.90
39951;DHT22;25629;51.444;-2.606;2023-07-13T10:12:22;19.30;99.90
39951;DHT22;25629;51.444;-2.606;2023-07-13T10:14:52;19.40;99.90
39951;DHT22;25629;51.444;-2.606;2023-07-13T10:17:24;19.60;99.90
39951;DHT22;25629;51.444;-2.606;2023-07-13T10:19:51;19.60;94.30
39951;DHT22;25629;51.444;-2.606;2023-07-13T10:25:01;19.80;92.60
39951;DHT22;25629;51.444;-2.606;2023-07-13T10:27:33;19.80;89.40
39951;DHT22;25629;51.444;-2.606;2023-07-13T10:30:09;20.00;84.80
39951;DHT22;25629;51.444;-2.606;2023-07-13T10:32:37;20.10;74.50
39951;DHT22;25629;51.444;-2.606;2023-07-13T10:35:03;20.20;52.90
39951;DHT22;25629;51.444;-2.606;2023-07-13T10:37:29;20.20;43.40
39951;DHT22;25629;51.444;-2.606;2023-07-13T10:39:58;20.20;54.50
39951;DHT22;25629;51.444;-2.606;2023-07-13T10:42:32;20.50;43.60
39951;DHT22;25629;51.444;-2.606;2023-07-13T10:45:00;20.50;25.20
39951;DHT22;25629;51.444;-2.606;2023-07-13T10:47:26;20.70;34.90
39951;DHT22;25629;51.444;-2.606;2023-07-13T10:49:53;20.80;24.70
39951;DHT22;25629;51.444;-2.606;2023-07-13T10:55:04;21.20;4.20
39951;DHT22;25629;51.444;-2.606;2023-07-13T10:57:31;21.40;31.20
39951;DHT22;25629;51.444;-2.606;2023-07-13T11:02:38;21.40;1.00
39951;DHT22;25629;51.444;-2.606;2023-07-13T11:07:52;21.20;1.00
39951;DHT22;25629;51.444;-2.606;2023-07-13T11:13:04;20.90;99.10
39951;DHT22;25629;51.444;-2.606;2023-07-13T11:15:31;20.80;99.90
39951;DHT22;25629;51.444;-2.606;2023-07-13T11:17:57;21.00;26.80
39951;DHT22;25629;51.444;-2.606;2023-07-13T11:20:31;21.00;1.00
39951;DHT22;25629;51.444;-2.606;2023-07-13T11:25:38;21.40;99.90
39951;DHT22;25629;51.444;-2.606;2023-07-13T11:30:37;22.10;1.00
39951;DHT22;25629;51.444;-2.606;2023-07-13T11:35:37;22.40;99.90
39951;DHT22;25629;51.444;-2.606;2023-07-13T11:38:16;22.30;99.90
39951;DHT22;25629;51.444;-2.606;2023-07-13T11:40:43;21.90;1.00
39951;DHT22;25629;51.444;-2.606;2023-07-13T11:43:11;21.70;99.90
39951;DHT22;25629;51.444;-2.606;2023-07-13T11:45:37;21.40;61.20
39951;DHT22;25629;51.444;-2.606;2023-07-13T11:48:03;21.30;99.90
39951;DHT22;25629;51.444;-2.606;2023-07-13T11:50:29;21.60;99.90
39951;DHT22;25629;51.444;-2.606;2023-07-13T11:52:54;21.50;99.90
39951;DHT22;25629;51.444;-2.606;2023-07-13T11:55:21;21.70;99.90
39951;DHT22;25629;51.444;-2.606;2023-07-13T11:57:50;21.90;99.90
39951;DHT22;25629;51.444;-2.606;2023-07-13T12:00:22;22.00;99.90
39951;DHT22;25629;51.444;-2.606;2023-07-13T12:02:49;21.80;99.90
39951;DHT22;25629;51.444;-2.606;2023-07-13T12:05:16;21.70;99.90
39951;DHT22;25629;51.444;-2.606;2023-07-13T12:07:46;21.60;99.90
39951;DHT22;25629;51.444;-2.606;2023-07-13T12:10:22;21.80;99.90
39951;DHT22;25629;51.444;-2.606;2023-07-13T12:12:55;22.20;9.90
39951;DHT22;25629;51.444;-2.606;2023-07-13T12:15:21;22.70;23.30
39951;DHT22;25629;51.444;-2.606;2023-07-13T12:17:47;23.30;99.90
39951;DHT22;25629;51.444;-2.606;2023-07-13T12:20:20;23.40;99.90
39951;DHT22;25629;51.444;-2.606;2023-07-13T12:22:46;23.60;99.90
39951;DHT22;25629;51.444;-2.606;2023-07-13T12:25:12;23.90;99.90
39951;DHT22;25629;51.444;-2.606;2023-07-13T12:27:38;23.80;99.90
39951;DHT22;25629;51.444;-2.606;2023-07-13T12:30:05;23.40;99.90
39951;DHT22;25629;51.444;-2.606;2023-07-13T12:32:31;23.40;99.90
39951;DHT22;25629;51.444;-2.606;2023-07-13T12:35:03;23.40;1.00
39951;DHT22;25629;51.444;-2.606;2023-07-13T12:37:33;23.30;99.90
39951;DHT22;25629;51.444;-2.606;2023-07-13T12:39:59;23.20;37.10
39951;DHT22;25629;51.444;-2.606;2023-07-13T12:42:29;23.10;1.00
39951;DHT22;25629;51.444;-2.606;2023-07-13T12:44:58;23.00;99.90
39951;DHT22;25629;51.444;-2.606;2023-07-13T12:47:24;23.10;1.00
39951;DHT22;25629;51.444;-2.606;2023-07-13T12:49:53;22.80;1.00
39951;DHT22;25629;51.444;-2.606;2023-07-13T12:52:37;22.60;1.00
39951;DHT22;25629;51.444;-2.606;2023-07-13T12:55:12;22.20;1.00
39951;DHT22;25629;51.444;-2.606;2023-07-13T12:57:40;22.20;1.00
39951;DHT22;25629;51.444;-2.606;2023-07-13T13:00:47;22.10;99.90
39951;DHT22;25629;51.444;-2.606;2023-07-13T13:03:45;22.40;99.90
39951;DHT22;25629;51.444;-2.606;2023-07-13T13:05:49;22.70;99.90
39951;DHT22;25629;51.444;-2.606;2023-07-13T13:08:15;22.50;10.90
39951;DHT22;25629;51.444;-2.606;2023-07-13T13:10:40;22.00;99.90
39951;DHT22;25629;51.444;-2.606;2023-07-13T13:13:06;21.60;1.40
39951;DHT22;25629;51.444;-2.606;2023-07-13T13:15:31;21.70;99.90
39951;DHT22;25629;51.444;-2.606;2023-07-13T13:17:58;21.80;99.90
39951;DHT22;25629;51.444;-2.606;2023-07-13T13:20:24;21.70;99.90
39951;DHT22;25629;51.444;-2.606;2023-07-13T13:22:51;22.00;33.70
39951;DHT22;25629;51.444;-2.606;2023-07-13T13:25:17;23.00;73.10
39951;DHT22;25629;51.444;-2.606;2023-07-13T13:27:43;23.30;1.00
39951;DHT22;25629;51.444;-2.606;2023-07-13T13:30:10;23.50;1.00
39951;DHT22;25629;51.444;-2.606;2023-07-13T13:32:41;23.60;1.00
39951;DHT22;25629;51.444;-2.606;2023-07-13T13:35:25;23.40;1.00
39951;DHT22;25629;51.444;-2.606;2023-07-13T13:37:52;23.00;99.90
39951;DHT22;25629;51.444;-2.606;2023-07-13T13:40:18;23.10;1.00
39951;DHT22;25629;51.444;-2.606;2023-07-13T13:42:44;23.30;99.90
39951;DHT22;25629;51.444;-2.606;2023-07-13T13:45:11;23.90;99.90
39951;DHT22;25629;51.444;-2.606;2023-07-13T13:47:38;24.50;99.90
39951;DHT22;25629;51.444;-2.606;2023-07-13T13:50:17;24.70;99.90
39951;DHT22;25629;51.444;-2.606;2023-07-13T13:52:43;25.00;99.90
39951;DHT22;25629;51.444;-2.606;2023-07-13T13:55:18;25.90;99.90
39951;DHT22;25629;51.444;-2.606;2023-07-13T13:57:45;26.20;99.90
39951;DHT22;25629;51.444;-2.606;2023-07-13T14:00:10;25.70;99.90
39951;DHT22;25629;51.444;-2.606;2023-07-13T14:02:40;25.40;99.90
39951;DHT22;25629;51.444;-2.606;2023-07-13T14:05:06;25.40;99.90
39951;DHT22;25629;51.444;-2.606;2023-07-13T14:07:33;25.30;99.90
39951;DHT22;25629;51.444;-2.606;2023-07-13T14:09:58;25.40;99.90
39951;DHT22;25629;51.444;-2.606;2023-07-13T14:12:26;25.20;99.90
39951;DHT22;25629;51.444;-2.606;2023-07-13T14:14:54;25.20;99.90
39951;DHT22;25629;51.444;-2.606;2023-07-13T14:17:24;24.90;99.90
39951;DHT22;25629;51.444;-2.606;2023-07-13T14:19:50;24.90;99.90
39951;DHT22;25629;51.444;-2.606;2023-07-13T14:22:17;25.30;99.90
39951;DHT22;25629;51.444;-2.606;2023-07-13T14:24:43;25.40;99.90
39951;DHT22;25629;51.444;-2.606;2023-07-13T14:27:12;25.70;99.90
39951;DHT22;25629;51.444;-2.606;2023-07-13T14:29:37;26.10;99.90
39951;DHT22;25629;51.444;-2.606;2023-07-13T14:32:03;26.00;99.90
39951;DHT22;25629;51.444;-2.606;2023-07-13T14:34:30;25.80;99.90
39951;DHT22;25629;51.444;-2.606;2023-07-13T14:36:56;25.40;99.90
39951;DHT22;25629;51.444;-2.606;2023-07-13T14:39:24;25.30;99.90
39951;DHT22;25629;51.444;-2.606;2023-07-13T14:41:50;25.00;99.90
39951;DHT22;25629;51.444;-2.606;2023-07-13T14:44:17;25.00;99.90
39951;DHT22;25629;51.444;-2.606;2023-07-13T14:46:43;25.40;99.90
39951;DHT22;25629;51.444;-2.606;2023-07-13T14:49:42;25.70;99.90
39951;DHT22;25629;51.444;-2.606;2023-07-13T14:52:02;25.60;99.90
39951;DHT22;25629;51.444;-2.606;2023-07-13T14:54:29;25.60;99.90
39951;DHT22;25629;51.444;-2.606;2023-07-13T14:56:54;25.70;99.90
39951;DHT22;25629;51.444;-2.606;2023-07-13T14:59:20;25.70;99.90
39951;DHT22;25629;51.444;-2.606;2023-07-13T15:01:46;26.20;99.90
39951;DHT22;25629;51.444;-2.606;2023-07-13T15:04:12;25.90;99.90
39951;DHT22;25629;51.444;-2.606;2023-07-13T15:09:22;25.70;99.90
39951;DHT22;25629;51.444;-2.606;2023-07-13T15:11:52;25.80;99.90
39951;DHT22;25629;51.444;-2.606;2023-07-13T15:14:17;25.70;99.90
39951;DHT22;25629;51.444;-2.606;2023-07-13T15:16:43;25.90;99.90
39951;DHT22;25629;51.444;-2.606;2023-07-13T15:19:10;26.30;99.90
39951;DHT22;25629;51.444;-2.606;2023-07-13T15:21:35;26.60;99.90
39951;DHT22;25629;51.444;-2.606;2023-07-13T15:24:02;25.80;99.90
39951;DHT22;25629;51.444;-2.606;2023-07-13T15:26:28;25.20;99.90
39951;DHT22;25629;51.444;-2.606;2023-07-13T15:28:53;24.90;99.90
39951;DHT22;25629;51.444;-2.606;2023-07-13T15:31:23;25.50;99.90
39951;DHT22;25629;51.444;-2.606;2023-07-13T15:33:52;25.50;99.90
39951;DHT22;25629;51.444;-2.606;2023-07-13T15:36:19;25.50;99.90
39951;DHT22;25629;51.444;-2.606;2023-07-13T15:38:45;25.80;99.90
39951;DHT22;25629;51.444;-2.606;2023-07-13T15:43:40;25.10;99.90
39951;DHT22;25629;51.444;-2.606;2023-07-13T15:46:05;25.10;99.90
39951;DHT22;25629;51.444;-2.606;2023-07-13T15:48:31;25.40;99.90
39951;DHT22;25629;51.444;-2.606;2023-07-13T15:51:03;25.70;99.90
39951;DHT22;25629;51.444;-2.606;2023-07-13T15:53:29;25.70;99.90
39951;DHT22;25629;51.444;-2.606;2023-07-13T15:55:56;26.50;99.90
39951;DHT22;25629;51.444;-2.606;2023-07-13T15:58:22;26.10;99.90